createdAt,value
2019-03-27T00:00:41.209Z,3.63
2019-03-27T00:03:11.900Z,2.90
2019-03-27T00:05:42.337Z,2.43
2019-03-27T00:08:12.756Z,2.40
2019-03-27T00:10:43.244Z,3.37
2019-03-27T00:13:13.522Z,3.27
2019-03-27T00:15:44.055Z,2.50
2019-03-27T00:18:14.205Z,3.10
2019-03-27T00:20:44.655Z,3.43
2019-03-27T00:23:14.959Z,3.53
2019-03-27T00:25:45.353Z,2.87
2019-03-27T00:28:15.630Z,2.83
2019-03-27T00:30:46.284Z,3.33
2019-03-27T00:33:16.504Z,3.00
2019-03-27T00:35:46.936Z,3.03
2019-03-27T00:38:17.270Z,3.33
2019-03-27T00:40:47.476Z,3.83
2019-03-27T00:43:18.109Z,3.57
2019-03-27T00:45:48.541Z,3.50
2019-03-27T00:48:19.118Z,2.50
2019-03-27T00:50:49.450Z,3.27
2019-03-27T00:53:20.062Z,2.57
2019-03-27T00:55:50.373Z,3.03
2019-03-27T00:58:20.992Z,3.53
2019-03-27T01:01:09.060Z,3.83
2019-03-27T01:03:39.624Z,3.10
2019-03-27T01:06:10.454Z,3.30
2019-03-27T01:08:40.940Z,3.37
2019-03-27T01:11:11.428Z,3.83
2019-03-27T01:13:41.671Z,3.87
2019-03-27T01:16:12.156Z,3.77
2019-03-27T01:18:42.394Z,2.67
2019-03-27T01:21:12.691Z,4.20
2019-03-27T01:23:43.052Z,3.87
2019-03-27T01:26:13.440Z,4.43
2019-03-27T01:28:43.631Z,3.60
2019-03-27T01:31:15.182Z,4.17
2019-03-27T01:33:45.368Z,5.20
2019-03-27T01:36:15.597Z,4.97
2019-03-27T01:38:46.085Z,3.80
2019-03-27T01:41:16.222Z,3.90
2019-03-27T01:43:46.414Z,3.70
2019-03-27T01:46:17.005Z,5.60
2019-03-27T01:48:47.372Z,4.80
2019-03-27T01:51:17.804Z,2.77
2019-03-27T01:53:48.361Z,2.63
2019-03-27T01:56:18.668Z,2.97
2019-03-27T01:58:49.344Z,3.37
2019-03-27T02:01:19.887Z,3.50
2019-03-27T02:03:50.254Z,3.53
2019-03-27T02:06:20.613Z,3.60
2019-03-27T02:08:51.087Z,3.40
2019-03-27T02:11:21.501Z,3.30
2019-03-27T02:13:51.917Z,3.63
2019-03-27T02:16:22.342Z,3.63
2019-03-27T02:18:52.392Z,3.17
2019-03-27T02:21:23.142Z,4.17
2019-03-27T02:23:53.503Z,4.43
2019-03-27T02:26:24.005Z,4.80
2019-03-27T02:28:54.137Z,4.13
2019-03-27T02:31:24.625Z,3.37
2019-03-27T02:33:55.130Z,3.83
2019-03-27T02:36:25.518Z,3.20
2019-03-27T02:38:55.645Z,3.30
2019-03-27T02:41:25.946Z,3.40
2019-03-27T02:43:56.094Z,3.73
2019-03-27T02:46:26.643Z,4.13
2019-03-27T02:48:57.080Z,4.07
2019-03-27T02:51:27.118Z,4.60
2019-03-27T02:53:57.402Z,5.13
2019-03-27T02:56:27.741Z,4.67
2019-03-27T02:58:58.117Z,4.37
2019-03-27T03:01:28.420Z,3.43
2019-03-27T03:03:59.018Z,3.87
2019-03-27T03:06:29.358Z,3.70
2019-03-27T03:08:59.721Z,4.13
2019-03-27T03:11:30.180Z,3.03
2019-03-27T03:14:00.270Z,3.13
2019-03-27T03:16:42.264Z,2.80
2019-03-27T03:19:02.613Z,2.87
2019-03-27T03:21:32.809Z,4.30
2019-03-27T03:24:03.490Z,4.40
2019-03-27T03:26:33.645Z,4.40
2019-03-27T03:29:03.972Z,4.03
2019-03-27T03:31:34.409Z,3.90
2019-03-27T03:34:04.719Z,3.33
2019-03-27T03:36:35.044Z,3.40
2019-03-27T03:39:06.272Z,3.70
2019-03-27T03:41:36.759Z,4.00
2019-03-27T03:44:07.097Z,4.50
2019-03-27T03:46:37.550Z,4.13
2019-03-27T03:49:07.900Z,3.50
2019-03-27T03:51:38.075Z,3.10
2019-03-27T03:54:09.737Z,2.63
2019-03-27T03:56:41.834Z,2.93
2019-03-27T03:59:13.664Z,3.87
2019-03-27T04:01:46.057Z,3.80
2019-03-27T04:04:17.883Z,3.23
2019-03-27T04:06:48.105Z,3.87
2019-03-27T04:09:18.569Z,4.57
2019-03-27T04:11:49.050Z,4.30
2019-03-27T04:14:19.497Z,4.50
2019-03-27T04:16:49.904Z,4.73
2019-03-27T04:19:20.554Z,5.60
2019-03-27T04:21:50.806Z,5.13
2019-03-27T04:24:21.354Z,4.37
2019-03-27T04:26:51.621Z,4.20
2019-03-27T04:29:22.315Z,3.50
2019-03-27T04:31:52.519Z,3.13
2019-03-27T04:34:22.997Z,3.17
2019-03-27T04:36:53.189Z,3.47
2019-03-27T04:39:23.509Z,3.30
2019-03-27T04:41:53.961Z,3.97
2019-03-27T04:44:24.301Z,4.43
2019-03-27T04:46:54.585Z,5.03
2019-03-27T04:49:24.999Z,4.67
2019-03-27T04:51:55.172Z,4.03
2019-03-27T04:54:27.026Z,4.93
2019-03-27T04:56:57.493Z,5.23
2019-03-27T04:59:27.696Z,4.70
2019-03-27T05:01:58.118Z,3.73
2019-03-27T05:04:29.043Z,3.97
2019-03-27T05:06:59.524Z,4.13
2019-03-27T05:09:29.584Z,4.40
2019-03-27T05:11:59.935Z,4.83
2019-03-27T05:14:30.353Z,4.60
2019-03-27T05:17:01.213Z,5.23
2019-03-27T05:19:31.299Z,5.10
2019-03-27T05:22:01.515Z,5.20
2019-03-27T05:24:31.889Z,6.00
2019-03-27T05:27:02.354Z,4.33
2019-03-27T05:29:32.541Z,5.57
2019-03-27T05:32:02.893Z,5.60
2019-03-27T05:34:32.983Z,5.13
2019-03-27T05:37:03.122Z,4.30
2019-03-27T05:39:33.710Z,4.20
2019-03-27T05:42:04.193Z,4.07
2019-03-27T05:44:34.635Z,4.20
2019-03-27T05:47:05.053Z,4.10
2019-03-27T05:49:35.571Z,5.53
2019-03-27T05:52:05.687Z,3.10
2019-03-27T05:54:35.989Z,3.53
2019-03-27T05:57:06.193Z,3.50
2019-03-27T05:59:36.410Z,5.83
2019-03-27T06:02:06.726Z,4.60
2019-03-27T06:04:36.906Z,3.77
2019-03-27T06:13:17.329Z,4.53
2019-03-27T06:15:47.366Z,5.43
2019-03-27T06:18:17.428Z,5.87
2019-03-27T06:20:48.047Z,5.80
2019-03-27T06:23:18.092Z,6.10
2019-03-27T06:25:48.037Z,7.63
2019-03-27T06:28:20.232Z,7.20
2019-03-27T06:30:53.252Z,7.50
2019-03-27T06:33:23.378Z,6.53
2019-03-27T06:35:53.598Z,7.53
2019-03-27T06:38:23.631Z,6.73
2019-03-27T06:40:53.815Z,8.33
2019-03-27T06:43:23.943Z,7.93
2019-03-27T06:45:53.980Z,8.87
2019-03-27T06:48:26.388Z,7.53
2019-03-27T06:50:55.873Z,8.13
2019-03-27T06:53:26.029Z,7.00
2019-03-27T06:55:56.138Z,7.13
2019-03-27T06:58:26.375Z,5.83
2019-03-27T07:00:56.641Z,6.70
2019-03-27T07:03:26.693Z,5.50
2019-03-27T07:05:57.024Z,6.23
2019-03-27T07:08:27.081Z,6.17
2019-03-27T07:10:57.092Z,5.30
2019-03-27T07:13:27.661Z,4.90
2019-03-27T07:15:57.736Z,5.10
2019-03-27T07:18:39.499Z,4.73
2019-03-27T07:21:01.973Z,3.93
2019-03-27T07:23:31.991Z,4.50
2019-03-27T07:26:02.361Z,5.23
2019-03-27T07:28:34.938Z,4.80
2019-03-27T07:31:05.380Z,4.47
2019-03-27T07:33:35.420Z,5.40
2019-03-27T07:36:05.355Z,4.67
2019-03-27T07:38:35.649Z,4.97
2019-03-27T07:41:05.781Z,5.10
2019-03-27T07:43:36.025Z,4.63
2019-03-27T07:46:06.157Z,4.60
2019-03-27T07:48:36.143Z,5.03
2019-03-27T07:51:06.874Z,5.37
2019-03-27T07:53:37.192Z,4.87
2019-03-27T07:56:07.474Z,5.27
2019-03-27T07:58:37.796Z,4.33
2019-03-27T08:01:07.984Z,4.60
2019-03-27T08:03:38.006Z,4.00
2019-03-27T08:06:07.975Z,3.50
2019-03-27T08:08:38.344Z,3.60
2019-03-27T08:11:08.423Z,3.70
2019-03-27T08:13:39.022Z,4.00
2019-03-27T08:16:09.188Z,4.00
2019-03-27T08:18:39.104Z,3.47
2019-03-27T08:21:09.370Z,4.30
2019-03-27T08:23:39.617Z,4.03
2019-03-27T08:26:09.656Z,4.40
2019-03-27T08:28:39.941Z,5.20
2019-03-27T08:31:10.271Z,2.70
2019-03-27T08:33:40.274Z,2.80
2019-03-27T08:36:10.405Z,3.60
2019-03-27T08:38:40.419Z,3.10
2019-03-27T08:41:10.503Z,3.50
2019-03-27T08:43:41.074Z,3.50
2019-03-27T08:46:11.101Z,4.07
2019-03-27T08:48:40.993Z,4.80
2019-03-27T08:51:11.244Z,4.13
2019-03-27T08:53:42.673Z,4.30
2019-03-27T08:56:12.832Z,2.83
2019-03-27T08:58:42.992Z,3.57
2019-03-27T09:01:12.944Z,3.37
2019-03-27T09:03:43.079Z,2.40
2019-03-27T09:06:13.576Z,3.33
2019-03-27T09:08:43.513Z,2.37
2019-03-27T09:11:13.754Z,2.67
2019-03-27T09:13:44.054Z,2.67
2019-03-27T09:16:14.068Z,2.17
2019-03-27T09:18:44.304Z,2.67
2019-03-27T09:21:14.274Z,2.57
2019-03-27T09:23:45.880Z,2.10
2019-03-27T09:26:16.375Z,2.40
2019-03-27T09:28:46.519Z,2.30
2019-03-27T09:31:16.667Z,2.60
2019-03-27T09:33:46.860Z,2.30
2019-03-27T09:36:16.975Z,2.57
2019-03-27T09:38:47.151Z,2.63
2019-03-27T09:41:17.369Z,1.90
2019-03-27T09:43:47.525Z,2.07
2019-03-27T09:46:17.576Z,2.80
2019-03-27T09:48:47.677Z,2.30
2019-03-27T09:51:17.643Z,1.77
2019-03-27T09:53:47.663Z,2.70
2019-03-27T09:56:19.342Z,2.30
2019-03-27T09:58:50.034Z,2.50
2019-03-27T10:01:20.194Z,2.07
2019-03-27T10:03:50.115Z,2.87
2019-03-27T10:06:20.181Z,2.97
2019-03-27T10:08:50.325Z,2.20
2019-03-27T10:11:23.597Z,2.63
2019-03-27T10:13:52.295Z,2.80
2019-03-27T10:16:22.370Z,3.60
2019-03-27T10:18:52.453Z,3.20
2019-03-27T10:21:22.665Z,3.20
2019-03-27T10:23:52.723Z,3.13
2019-03-27T10:26:22.715Z,2.97
2019-03-27T10:28:53.226Z,2.20
2019-03-27T10:31:23.200Z,2.53
2019-03-27T10:33:53.246Z,4.50
2019-03-27T10:36:23.459Z,3.60
2019-03-27T10:38:53.528Z,4.73
2019-03-27T10:41:23.497Z,3.10
2019-03-27T10:43:54.038Z,2.23
2019-03-27T10:46:24.013Z,2.97
2019-03-27T10:48:53.996Z,2.73
2019-03-27T10:51:24.221Z,3.10
2019-03-27T10:53:54.192Z,2.90
2019-03-27T10:56:24.218Z,2.20
2019-03-27T10:58:54.629Z,3.37
2019-03-27T11:01:24.629Z,3.90
2019-03-27T11:03:54.568Z,2.63
2019-03-27T11:06:25.257Z,3.60
2019-03-27T11:08:55.231Z,2.97
2019-03-27T11:11:25.463Z,3.97
2019-03-27T11:13:56.113Z,3.87
2019-03-27T11:16:26.161Z,3.20
2019-03-27T11:18:56.203Z,3.10
2019-03-27T11:21:26.490Z,2.80
2019-03-27T11:23:56.642Z,2.50
2019-03-27T11:26:26.669Z,2.80
2019-03-27T11:28:57.145Z,3.80
2019-03-27T11:31:27.225Z,2.33
2019-03-27T11:33:57.265Z,2.57
2019-03-27T11:36:27.457Z,3.23
2019-03-27T11:38:58.429Z,2.97
2019-03-27T11:41:28.655Z,3.40
2019-03-27T11:43:58.714Z,2.60
2019-03-27T11:46:32.047Z,2.37
2019-03-27T11:49:00.718Z,2.97
2019-03-27T11:51:30.832Z,3.20
2019-03-27T11:54:00.867Z,2.97
2019-03-27T11:56:30.984Z,3.70
2019-03-27T11:59:01.271Z,2.63
2019-03-27T12:01:39.646Z,5.90
2019-03-27T12:04:03.337Z,4.40
2019-03-27T12:06:33.885Z,2.40
2019-03-27T12:09:05.383Z,3.30
2019-03-27T12:11:35.432Z,2.93
2019-03-27T12:14:06.071Z,3.77
2019-03-27T12:16:36.198Z,2.30
2019-03-27T12:19:06.481Z,2.23
2019-03-27T12:21:36.920Z,2.87
2019-03-27T12:24:07.025Z,2.00
2019-03-27T12:26:37.042Z,4.27
2019-03-27T12:29:07.314Z,2.60
2019-03-27T12:31:37.507Z,1.67
2019-03-27T12:34:07.509Z,3.13
2019-03-27T12:36:37.546Z,2.00
2019-03-27T12:39:09.456Z,2.20
2019-03-27T12:41:39.762Z,2.03
2019-03-27T12:44:11.058Z,1.73
2019-03-27T12:46:41.152Z,2.00
2019-03-27T12:49:11.097Z,1.10
2019-03-27T12:51:41.048Z,1.90
2019-03-27T12:54:11.431Z,1.70
2019-03-27T12:56:41.337Z,1.70
2019-03-27T12:59:11.599Z,2.00
2019-03-27T13:01:41.823Z,2.20
2019-03-27T13:04:11.827Z,1.73
2019-03-27T13:06:41.869Z,1.83
2019-03-27T13:09:12.150Z,1.17
2019-03-27T13:11:42.133Z,1.60
2019-03-27T13:14:13.499Z,2.03
2019-03-27T13:16:43.536Z,2.07
2019-03-27T13:19:13.612Z,1.40
2019-03-27T13:21:43.891Z,1.83
2019-03-27T13:24:14.039Z,1.83
2019-03-27T13:26:44.411Z,1.50
2019-03-27T13:29:14.910Z,1.23
2019-03-27T13:31:44.908Z,1.73
2019-03-27T13:34:14.867Z,1.57
2019-03-27T13:36:49.188Z,1.00
2019-03-27T13:39:19.479Z,0.77
2019-03-27T13:41:49.558Z,0.70
2019-03-27T13:44:19.808Z,1.20
2019-03-27T13:46:49.914Z,1.30
2019-03-27T13:49:20.352Z,1.00
2019-03-27T13:51:50.442Z,0.77
2019-03-27T13:54:20.500Z,0.90
2019-03-27T13:56:50.612Z,0.80
2019-03-27T13:59:21.032Z,1.47
2019-03-27T14:01:51.046Z,0.67
2019-03-27T14:04:21.117Z,1.07
2019-03-27T14:06:51.673Z,1.00
2019-03-27T14:09:21.796Z,1.20
2019-03-27T14:11:52.316Z,1.00
2019-03-27T14:14:22.670Z,0.90
2019-03-27T14:16:52.702Z,0.90
2019-03-27T14:19:22.928Z,1.30
2019-03-27T14:21:54.953Z,1.23
2019-03-27T14:24:25.583Z,0.80
2019-03-27T14:26:55.596Z,1.70
2019-03-27T14:29:26.102Z,1.23
2019-03-27T14:31:56.692Z,1.67
2019-03-27T14:34:26.701Z,1.17
2019-03-27T14:36:57.689Z,2.10
2019-03-27T14:39:28.019Z,2.27
2019-03-27T14:41:58.306Z,1.67
2019-03-27T14:44:30.767Z,2.47
2019-03-27T14:47:02.181Z,1.60
2019-03-27T14:49:32.243Z,1.30
2019-03-27T14:52:08.384Z,1.90
2019-03-27T14:54:37.085Z,1.80
2019-03-27T14:57:07.578Z,1.30
2019-03-27T14:59:37.882Z,1.40
2019-03-27T15:02:08.435Z,3.10
2019-03-27T15:04:38.862Z,1.63
2019-03-27T15:07:09.280Z,1.63
2019-03-27T15:09:40.230Z,1.60
2019-03-27T15:12:10.607Z,1.53
2019-03-27T15:14:41.069Z,1.30
2019-03-27T15:17:11.481Z,1.40
2019-03-27T15:19:41.822Z,1.17
2019-03-27T15:22:22.235Z,1.30
2019-03-27T15:24:44.254Z,0.90
2019-03-27T15:27:14.439Z,1.17
2019-03-27T15:29:45.461Z,1.00
2019-03-27T15:32:18.755Z,1.60
2019-03-27T15:34:48.720Z,1.00
2019-03-27T15:37:18.737Z,1.57
2019-03-27T15:39:51.407Z,1.50
2019-03-27T15:42:21.617Z,3.33
2019-03-27T15:44:52.702Z,1.20
2019-03-27T15:47:22.954Z,1.40
2019-03-27T15:49:53.246Z,7.50
2019-03-27T15:52:35.803Z,1.97
2019-03-27T15:54:55.612Z,1.83
2019-03-27T15:57:25.876Z,0.77
2019-03-27T15:59:56.210Z,1.43
2019-03-27T16:02:26.395Z,1.00
2019-03-27T16:04:59.223Z,1.40
2019-03-27T16:07:31.475Z,1.30
2019-03-27T16:10:02.217Z,1.30
2019-03-27T16:12:36.114Z,0.90
2019-03-27T16:15:06.124Z,2.40
2019-03-27T16:17:36.811Z,1.90
2019-03-27T16:20:10.615Z,1.97
2019-03-27T16:22:50.627Z,1.60
2019-03-27T16:25:12.987Z,1.57
2019-03-27T16:27:42.998Z,1.30
2019-03-27T16:30:13.298Z,1.20
2019-03-27T16:32:43.414Z,1.10
2019-03-27T16:35:14.968Z,0.87
2019-03-27T16:37:45.469Z,1.10
2019-03-27T16:40:15.964Z,1.00
2019-03-27T16:42:46.306Z,3.13
2019-03-27T16:45:16.719Z,1.00
2019-03-27T16:47:46.787Z,1.10
2019-03-27T16:50:17.313Z,1.57
2019-03-27T16:52:47.483Z,1.00
2019-03-27T16:55:17.492Z,0.90
2019-03-27T16:57:51.193Z,0.93
2019-03-27T17:00:20.045Z,0.77
2019-03-27T17:02:50.144Z,1.07
2019-03-27T17:05:20.452Z,1.00
2019-03-27T17:07:50.684Z,1.20
2019-03-27T17:10:20.896Z,0.77
2019-03-27T17:12:51.302Z,0.70
2019-03-27T17:15:28.740Z,0.70
2019-03-27T17:18:06.998Z,0.70
2019-03-27T17:20:41.819Z,0.70
2019-03-27T17:23:18.407Z,1.20
2019-03-27T17:25:45.205Z,0.80
2019-03-27T17:28:15.555Z,1.10
2019-03-27T17:30:45.833Z,1.70
2019-03-27T17:33:17.074Z,1.93
2019-03-27T17:35:47.197Z,0.70
2019-03-27T17:38:17.444Z,0.93
2019-03-27T17:40:48.172Z,0.90
2019-03-27T17:43:18.626Z,1.10
2019-03-27T17:45:48.798Z,3.27
2019-03-27T17:48:19.175Z,1.20
2019-03-27T17:50:49.413Z,0.97
2019-03-27T17:53:37.608Z,2.07
2019-03-27T17:56:26.796Z,0.90
2019-03-27T17:59:01.447Z,1.53
2019-03-27T18:01:35.269Z,1.30
2019-03-27T18:04:07.987Z,1.70
2019-03-27T18:06:38.149Z,1.20
2019-03-27T18:09:09.899Z,1.77
2019-03-27T18:11:40.027Z,1.40
2019-03-27T18:14:10.364Z,1.70
2019-03-27T18:16:41.795Z,4.67
2019-03-27T18:19:12.263Z,3.90
2019-03-27T18:21:42.495Z,1.67
2019-03-27T18:24:12.916Z,1.90
2019-03-27T18:26:45.164Z,2.33
2019-03-27T18:29:17.810Z,1.80
2019-03-27T18:31:48.104Z,1.57
2019-03-27T18:34:27.599Z,1.80
2019-03-27T18:37:01.206Z,2.87
2019-03-27T18:39:33.563Z,3.10
2019-03-27T18:42:03.813Z,3.17
2019-03-27T18:44:34.003Z,1.70
2019-03-27T18:47:04.411Z,1.67
2019-03-27T18:49:36.286Z,1.80
2019-03-27T18:52:28.644Z,1.60
2019-03-27T18:55:02.212Z,2.60
2019-03-27T18:58:30.060Z,2.23
2019-03-27T19:01:00.902Z,2.57
2019-03-27T19:03:40.432Z,3.43
2019-03-27T19:06:14.198Z,3.20
2019-03-27T19:08:44.374Z,1.90
2019-03-27T19:11:14.721Z,2.00
2019-03-27T19:13:49.215Z,1.93
2019-03-27T19:16:20.710Z,2.23
2019-03-27T19:18:50.993Z,1.90
2019-03-27T19:21:23.988Z,2.70
2019-03-27T19:23:54.251Z,3.53
2019-03-27T19:26:24.505Z,2.10
2019-03-27T19:28:55.011Z,1.70
2019-03-27T19:31:26.132Z,1.90
2019-03-27T19:33:59.357Z,1.63
2019-03-27T19:36:29.579Z,1.80
2019-03-27T19:39:00.050Z,1.90
2019-03-27T19:41:30.803Z,1.93
2019-03-27T19:44:01.599Z,2.17
2019-03-27T19:46:32.224Z,1.83
2019-03-27T19:49:03.074Z,2.70
2019-03-27T19:51:34.773Z,2.00
2019-03-27T19:54:05.307Z,2.67
2019-03-27T19:56:37.743Z,2.37
2019-03-27T19:59:08.064Z,2.60
2019-03-27T20:01:38.393Z,2.80
2019-03-27T20:04:08.455Z,3.00
2019-03-27T20:06:39.063Z,4.13
2019-03-27T20:09:15.467Z,3.63
2019-03-27T20:11:57.708Z,2.60
2019-03-27T20:14:30.689Z,3.10
2019-03-27T20:17:01.018Z,3.10
2019-03-27T20:19:31.454Z,2.67
2019-03-27T20:22:01.689Z,2.63
2019-03-27T20:24:40.845Z,2.27
2019-03-27T20:27:04.099Z,6.10
2019-03-27T20:29:35.333Z,2.03
2019-03-27T20:32:07.088Z,2.50
2019-03-27T20:34:40.105Z,2.33
2019-03-27T20:37:13.809Z,2.50
2019-03-27T20:39:44.938Z,1.93
2019-03-27T20:42:15.889Z,1.83
2019-03-27T20:44:46.832Z,2.17
2019-03-27T20:47:17.787Z,2.70
2019-03-27T20:49:49.352Z,2.50
2019-03-27T20:52:19.971Z,2.43
2019-03-27T20:54:55.414Z,2.10
2019-03-27T20:57:22.832Z,1.77
2019-03-27T20:59:53.258Z,1.87
2019-03-27T21:02:26.542Z,1.80
2019-03-27T21:04:57.343Z,2.43
2019-03-27T21:07:27.655Z,1.90
2019-03-27T21:09:59.089Z,1.97
2019-03-27T21:12:29.493Z,1.70
2019-03-27T21:15:04.472Z,2.03
2019-03-27T21:17:34.787Z,2.73
2019-03-27T21:20:06.841Z,1.90
2019-03-27T21:22:37.409Z,1.80
2019-03-27T21:25:10.006Z,1.80
2019-03-27T21:27:40.408Z,1.80
2019-03-27T21:30:12.548Z,1.30
2019-03-27T21:32:43.217Z,2.03
2019-03-27T21:35:14.223Z,1.83
2019-03-27T21:37:44.769Z,1.33
2019-03-27T21:40:15.961Z,1.40
2019-03-27T21:42:47.242Z,1.60
2019-03-27T21:45:17.832Z,2.00
2019-03-27T21:47:48.228Z,2.07
2019-03-27T21:50:18.679Z,2.00
2019-03-27T21:52:59.965Z,1.77
2019-03-27T21:55:22.945Z,1.53
2019-03-27T21:57:53.237Z,1.20
2019-03-27T22:00:39.965Z,1.60
2019-03-27T22:03:11.949Z,1.50
2019-03-27T22:05:42.314Z,1.70
2019-03-27T22:08:12.490Z,1.33
2019-03-27T22:10:42.773Z,1.60
2019-03-27T22:13:12.817Z,0.87
2019-03-27T22:15:42.924Z,1.17
2019-03-27T22:18:13.497Z,1.20
2019-03-27T22:20:43.991Z,1.40
2019-03-27T22:23:14.782Z,1.43
2019-03-27T22:25:45.304Z,1.80
2019-03-27T22:28:20.507Z,2.70
2019-03-27T22:30:53.979Z,2.37
2019-03-27T22:33:24.739Z,1.97
2019-03-27T22:35:56.140Z,2.20
2019-03-27T22:38:26.633Z,2.53
2019-03-27T22:40:56.843Z,2.17
2019-03-27T22:43:27.488Z,1.90
2019-03-27T22:45:58.385Z,2.10
2019-03-27T22:48:28.889Z,2.30
2019-03-27T22:50:59.647Z,3.07
2019-03-27T22:53:30.100Z,3.40
2019-03-27T22:56:02.337Z,2.40
2019-03-27T22:58:32.845Z,2.83
2019-03-27T23:01:03.078Z,2.70
2019-03-27T23:03:33.335Z,2.53
2019-03-27T23:06:03.909Z,3.07
2019-03-27T23:08:36.608Z,3.30
2019-03-27T23:11:07.015Z,3.27
2019-03-27T23:13:37.099Z,3.33
2019-03-27T23:16:07.887Z,3.27
2019-03-27T23:18:38.450Z,3.23
2019-03-27T23:21:08.786Z,3.03
2019-03-27T23:23:39.220Z,3.60
2019-03-27T23:26:09.360Z,3.67
2019-03-27T23:28:39.528Z,4.03
2019-03-27T23:31:09.810Z,4.70
2019-03-27T23:33:40.928Z,3.47
2019-03-27T23:36:11.709Z,4.30
2019-03-27T23:38:41.895Z,3.93
2019-03-27T23:41:11.976Z,4.40
2019-03-27T23:43:42.238Z,4.80
2019-03-27T23:46:12.310Z,4.20
2019-03-27T23:48:42.835Z,4.73
2019-03-27T23:51:13.034Z,5.07
2019-03-27T23:53:43.077Z,3.60
2019-03-27T23:56:16.787Z,4.17
2019-03-27T23:58:45.177Z,3.87
